sensor_id;sensor_type;location;lat;lon;timestamp;P1;durP1;ratioP1;P2;durP2;ratioP2
84660;SDS011;74889;52.240;20.902;2024-01-30T00:01:42;50.10;;;25.50;;
84660;SDS011;74889;52.240;20.902;2024-01-30T00:04:08;46.90;;;24.70;;
84660;SDS011;74889;52.240;20.902;2024-01-30T00:06:33;46.30;;;23.40;;
84660;SDS011;74889;52.240;20.902;2024-01-30T00:08:59;47.40;;;25.00;;
84660;SDS011;74889;52.240;20.902;2024-01-30T00:11:24;43.50;;;24.10;;
84660;SDS011;74889;52.240;20.902;2024-01-30T00:13:54;46.90;;;24.70;;
84660;SDS011;74889;52.240;20.902;2024-01-30T00:16:24;50.10;;;24.40;;
84660;SDS011;74889;52.240;20.902;2024-01-30T00:18:51;49.00;;;24.20;;
84660;SDS011;74889;52.240;20.902;2024-01-30T00:21:17;47.20;;;23.70;;
84660;SDS011;74889;52.240;20.902;2024-01-30T00:23:43;46.50;;;25.20;;
84660;SDS011;74889;52.240;20.902;2024-01-30T00:26:09;52.50;;;25.60;;
84660;SDS011;74889;52.240;20.902;2024-01-30T00:28:35;50.20;;;25.30;;
84660;SDS011;74889;52.240;20.902;2024-01-30T00:31:00;52.70;;;26.40;;
84660;SDS011;74889;52.240;20.902;2024-01-30T00:33:26;48.30;;;25.50;;
84660;SDS011;74889;52.240;20.902;2024-01-30T00:35:53;50.20;;;25.60;;
84660;SDS011;74889;52.240;20.902;2024-01-30T00:38:18;50.30;;;24.70;;
84660;SDS011;74889;52.240;20.902;2024-01-30T00:40:44;49.20;;;25.60;;
84660;SDS011;74889;52.240;20.902;2024-01-30T00:43:09;49.00;;;25.40;;
84660;SDS011;74889;52.240;20.902;2024-01-30T00:45:36;49.50;;;25.10;;
84660;SDS011;74889;52.240;20.902;2024-01-30T00:48:01;44.70;;;25.10;;
84660;SDS011;74889;52.240;20.902;2024-01-30T00:50:27;46.20;;;25.20;;
84660;SDS011;74889;52.240;20.902;2024-01-30T00:52:53;43.80;;;23.90;;
84660;SDS011;74889;52.240;20.902;2024-01-30T00:55:19;47.40;;;23.80;;
84660;SDS011;74889;52.240;20.902;2024-01-30T00:57:45;45.80;;;24.10;;
84660;SDS011;74889;52.240;20.902;2024-01-30T01:00:12;51.90;;;24.50;;
84660;SDS011;74889;52.240;20.902;2024-01-30T01:02:38;50.00;;;25.60;;
84660;SDS011;74889;52.240;20.902;2024-01-30T01:05:04;46.60;;;23.70;;
84660;SDS011;74889;52.240;20.902;2024-01-30T01:07:30;48.80;;;25.20;;
84660;SDS011;74889;52.240;20.902;2024-01-30T01:09:56;49.80;;;24.80;;
84660;SDS011;74889;52.240;20.902;2024-01-30T01:12:21;43.40;;;24.50;;
84660;SDS011;74889;52.240;20.902;2024-01-30T01:14:47;44.90;;;22.70;;
84660;SDS011;74889;52.240;20.902;2024-01-30T01:17:12;46.70;;;24.10;;
84660;SDS011;74889;52.240;20.902;2024-01-30T01:19:38;45.40;;;24.40;;
84660;SDS011;74889;52.240;20.902;2024-01-30T01:22:03;45.70;;;22.90;;
84660;SDS011;74889;52.240;20.902;2024-01-30T01:24:33;47.70;;;25.00;;
84660;SDS011;74889;52.240;20.902;2024-01-30T01:27:00;47.10;;;24.80;;
84660;SDS011;74889;52.240;20.902;2024-01-30T01:29:26;48.40;;;24.20;;
84660;SDS011;74889;52.240;20.902;2024-01-30T01:31:55;46.50;;;25.30;;
84660;SDS011;74889;52.240;20.902;2024-01-30T01:34:22;47.00;;;24.40;;
84660;SDS011;74889;52.240;20.902;2024-01-30T01:36:49;46.00;;;24.50;;
84660;SDS011;74889;52.240;20.902;2024-01-30T01:39:15;48.30;;;25.30;;
84660;SDS011;74889;52.240;20.902;2024-01-30T01:41:41;47.00;;;23.60;;
84660;SDS011;74889;52.240;20.902;2024-01-30T01:44:07;47.50;;;25.00;;
84660;SDS011;74889;52.240;20.902;2024-01-30T01:46:35;46.30;;;24.80;;
84660;SDS011;74889;52.240;20.902;2024-01-30T01:49:03;45.80;;;24.80;;
84660;SDS011;74889;52.240;20.902;2024-01-30T01:51:33;46.00;;;25.40;;
84660;SDS011;74889;52.240;20.902;2024-01-30T01:54:03;48.20;;;24.50;;
84660;SDS011;74889;52.240;20.902;2024-01-30T01:56:33;48.70;;;24.50;;
84660;SDS011;74889;52.240;20.902;2024-01-30T01:59:00;54.30;;;24.50;;
84660;SDS011;74889;52.240;20.902;2024-01-30T02:01:33;49.50;;;24.20;;
84660;SDS011;74889;52.240;20.902;2024-01-30T02:04:01;47.60;;;23.30;;
84660;SDS011;74889;52.240;20.902;2024-01-30T02:06:27;48.90;;;23.80;;
84660;SDS011;74889;52.240;20.902;2024-01-30T02:08:54;48.20;;;23.70;;
84660;SDS011;74889;52.240;20.902;2024-01-30T02:11:20;44.00;;;23.90;;
84660;SDS011;74889;52.240;20.902;2024-01-30T02:13:48;46.60;;;23.60;;
84660;SDS011;74889;52.240;20.902;2024-01-30T02:16:14;44.90;;;24.40;;
84660;SDS011;74889;52.240;20.902;2024-01-30T02:18:39;46.30;;;24.90;;
84660;SDS011;74889;52.240;20.902;2024-01-30T02:21:11;47.70;;;24.30;;
84660;SDS011;74889;52.240;20.902;2024-01-30T02:23:37;44.00;;;24.00;;
84660;SDS011;74889;52.240;20.902;2024-01-30T02:26:06;44.20;;;23.20;;
84660;SDS011;74889;52.240;20.902;2024-01-30T02:28:31;48.30;;;25.10;;
84660;SDS011;74889;52.240;20.902;2024-01-30T02:30:57;45.60;;;23.50;;
84660;SDS011;74889;52.240;20.902;2024-01-30T02:33:24;41.60;;;22.90;;
84660;SDS011;74889;52.240;20.902;2024-01-30T02:35:50;44.40;;;23.30;;
84660;SDS011;74889;52.240;20.902;2024-01-30T02:38:17;43.70;;;23.60;;
84660;SDS011;74889;52.240;20.902;2024-01-30T02:40:42;44.60;;;23.70;;
84660;SDS011;74889;52.240;20.902;2024-01-30T02:43:08;45.10;;;24.60;;
84660;SDS011;74889;52.240;20.902;2024-01-30T02:45:33;46.60;;;22.70;;
84660;SDS011;74889;52.240;20.902;2024-01-30T02:48:00;47.90;;;23.70;;
84660;SDS011;74889;52.240;20.902;2024-01-30T02:50:26;48.90;;;24.70;;
84660;SDS011;74889;52.240;20.902;2024-01-30T02:52:51;46.20;;;22.50;;
84660;SDS011;74889;52.240;20.902;2024-01-30T02:55:17;47.20;;;22.90;;
84660;SDS011;74889;52.240;20.902;2024-01-30T02:57:43;57.10;;;24.30;;
84660;SDS011;74889;52.240;20.902;2024-01-30T03:00:09;47.20;;;22.80;;
84660;SDS011;74889;52.240;20.902;2024-01-30T03:02:35;41.80;;;22.60;;
84660;SDS011;74889;52.240;20.902;2024-01-30T03:05:02;45.40;;;22.50;;
84660;SDS011;74889;52.240;20.902;2024-01-30T03:07:29;44.20;;;22.70;;
84660;SDS011;74889;52.240;20.902;2024-01-30T03:09:56;47.80;;;23.30;;
84660;SDS011;74889;52.240;20.902;2024-01-30T03:12:21;46.00;;;23.10;;
84660;SDS011;74889;52.240;20.902;2024-01-30T03:14:49;44.00;;;22.50;;
84660;SDS011;74889;52.240;20.902;2024-01-30T03:17:15;46.50;;;23.40;;
84660;SDS011;74889;52.240;20.902;2024-01-30T03:19:41;45.40;;;23.20;;
84660;SDS011;74889;52.240;20.902;2024-01-30T03:22:07;43.60;;;22.30;;
84660;SDS011;74889;52.240;20.902;2024-01-30T03:24:33;44.70;;;21.70;;
84660;SDS011;74889;52.240;20.902;2024-01-30T03:26:59;49.20;;;23.10;;
84660;SDS011;74889;52.240;20.902;2024-01-30T03:29:26;40.80;;;21.70;;
84660;SDS011;74889;52.240;20.902;2024-01-30T03:31:51;47.50;;;22.80;;
84660;SDS011;74889;52.240;20.902;2024-01-30T03:34:17;44.00;;;22.40;;
84660;SDS011;74889;52.240;20.902;2024-01-30T03:36:45;39.80;;;21.10;;
84660;SDS011;74889;52.240;20.902;2024-01-30T03:39:11;47.50;;;23.20;;
84660;SDS011;74889;52.240;20.902;2024-01-30T03:41:36;44.50;;;22.70;;
84660;SDS011;74889;52.240;20.902;2024-01-30T03:44:02;44.30;;;22.30;;
84660;SDS011;74889;52.240;20.902;2024-01-30T03:46:28;42.00;;;21.30;;
84660;SDS011;74889;52.240;20.902;2024-01-30T03:48:54;47.30;;;21.70;;
84660;SDS011;74889;52.240;20.902;2024-01-30T03:51:20;40.70;;;21.80;;
84660;SDS011;74889;52.240;20.902;2024-01-30T03:53:47;43.50;;;22.20;;
84660;SDS011;74889;52.240;20.902;2024-01-30T03:56:13;46.60;;;23.00;;
84660;SDS011;74889;52.240;20.902;2024-01-30T03:58:39;50.20;;;22.70;;
84660;SDS011;74889;52.240;20.902;2024-01-30T04:01:05;44.40;;;21.70;;
84660;SDS011;74889;52.240;20.902;2024-01-30T04:03:32;49.10;;;22.70;;
84660;SDS011;74889;52.240;20.902;2024-01-30T04:05:58;41.70;;;20.30;;
84660;SDS011;74889;52.240;20.902;2024-01-30T04:08:24;39.60;;;21.50;;
84660;SDS011;74889;52.240;20.902;2024-01-30T04:10:49;44.70;;;22.50;;
84660;SDS011;74889;52.240;20.902;2024-01-30T04:13:15;49.70;;;22.40;;
84660;SDS011;74889;52.240;20.902;2024-01-30T04:15:40;39.40;;;21.30;;
84660;SDS011;74889;52.240;20.902;2024-01-30T04:18:07;43.80;;;20.70;;
84660;SDS011;74889;52.240;20.902;2024-01-30T04:20:32;41.40;;;21.40;;
84660;SDS011;74889;52.240;20.902;2024-01-30T04:22:58;50.30;;;21.60;;
84660;SDS011;74889;52.240;20.902;2024-01-30T04:25:23;38.90;;;20.80;;
84660;SDS011;74889;52.240;20.902;2024-01-30T04:27:49;44.30;;;21.30;;
84660;SDS011;74889;52.240;20.902;2024-01-30T04:30:16;43.60;;;21.00;;
84660;SDS011;74889;52.240;20.902;2024-01-30T04:32:43;45.50;;;21.20;;
84660;SDS011;74889;52.240;20.902;2024-01-30T04:35:09;39.10;;;20.30;;
84660;SDS011;74889;52.240;20.902;2024-01-30T04:37:34;40.10;;;21.70;;
84660;SDS011;74889;52.240;20.902;2024-01-30T04:40:01;44.90;;;21.80;;
84660;SDS011;74889;52.240;20.902;2024-01-30T04:42:28;45.20;;;21.50;;
84660;SDS011;74889;52.240;20.902;2024-01-30T04:44:53;40.90;;;22.10;;
84660;SDS011;74889;52.240;20.902;2024-01-30T04:47:19;45.80;;;21.70;;
84660;SDS011;74889;52.240;20.902;2024-01-30T04:49:44;46.80;;;22.10;;
84660;SDS011;74889;52.240;20.902;2024-01-30T04:52:11;44.30;;;22.00;;
84660;SDS011;74889;52.240;20.902;2024-01-30T04:54:36;43.90;;;20.80;;
84660;SDS011;74889;52.240;20.902;2024-01-30T04:57:02;39.40;;;20.00;;
84660;SDS011;74889;52.240;20.902;2024-01-30T04:59:28;40.50;;;20.90;;
84660;SDS011;74889;52.240;20.902;2024-01-30T05:01:53;41.00;;;21.10;;
84660;SDS011;74889;52.240;20.902;2024-01-30T05:04:20;42.40;;;21.10;;
84660;SDS011;74889;52.240;20.902;2024-01-30T05:06:48;40.00;;;20.50;;
84660;SDS011;74889;52.240;20.902;2024-01-30T05:09:14;38.90;;;20.30;;
84660;SDS011;74889;52.240;20.902;2024-01-30T05:11:40;44.10;;;21.10;;
84660;SDS011;74889;52.240;20.902;2024-01-30T05:14:07;41.40;;;20.40;;
84660;SDS011;74889;52.240;20.902;2024-01-30T05:16:37;39.50;;;21.00;;
84660;SDS011;74889;52.240;20.902;2024-01-30T05:19:02;38.80;;;20.60;;
84660;SDS011;74889;52.240;20.902;2024-01-30T05:21:28;36.40;;;21.40;;
84660;SDS011;74889;52.240;20.902;2024-01-30T05:23:53;42.50;;;20.90;;
84660;SDS011;74889;52.240;20.902;2024-01-30T05:26:19;39.40;;;20.90;;
84660;SDS011;74889;52.240;20.902;2024-01-30T05:28:44;36.20;;;20.20;;
84660;SDS011;74889;52.240;20.902;2024-01-30T05:31:10;46.70;;;22.30;;
84660;SDS011;74889;52.240;20.902;2024-01-30T05:33:36;43.90;;;21.00;;
84660;SDS011;74889;52.240;20.902;2024-01-30T05:36:02;41.40;;;21.50;;
84660;SDS011;74889;52.240;20.902;2024-01-30T05:38:28;43.90;;;20.90;;
84660;SDS011;74889;52.240;20.902;2024-01-30T05:40:54;41.10;;;20.90;;
84660;SDS011;74889;52.240;20.902;2024-01-30T05:43:20;44.40;;;21.50;;
84660;SDS011;74889;52.240;20.902;2024-01-30T05:45:47;40.50;;;20.60;;
84660;SDS011;74889;52.240;20.902;2024-01-30T05:48:12;44.20;;;20.70;;
84660;SDS011;74889;52.240;20.902;2024-01-30T05:50:38;42.60;;;20.90;;
84660;SDS011;74889;52.240;20.902;2024-01-30T05:53:03;42.10;;;21.60;;
84660;SDS011;74889;52.240;20.902;2024-01-30T05:55:29;42.30;;;21.30;;
84660;SDS011;74889;52.240;20.902;2024-01-30T05:57:55;39.90;;;20.00;;
84660;SDS011;74889;52.240;20.902;2024-01-30T06:00:22;40.40;;;21.80;;
84660;SDS011;74889;52.240;20.902;2024-01-30T06:02:48;46.10;;;20.70;;
84660;SDS011;74889;52.240;20.902;2024-01-30T06:05:14;45.20;;;20.90;;
84660;SDS011;74889;52.240;20.902;2024-01-30T06:07:45;45.00;;;21.40;;
84660;SDS011;74889;52.240;20.902;2024-01-30T06:10:11;43.70;;;21.20;;
84660;SDS011;74889;52.240;20.902;2024-01-30T06:12:37;44.20;;;21.80;;
84660;SDS011;74889;52.240;20.902;2024-01-30T06:15:04;41.60;;;21.20;;
84660;SDS011;74889;52.240;20.902;2024-01-30T06:17:34;44.10;;;21.10;;
84660;SDS011;74889;52.240;20.902;2024-01-30T06:20:00;43.00;;;21.10;;
84660;SDS011;74889;52.240;20.902;2024-01-30T06:22:26;39.70;;;20.30;;
84660;SDS011;74889;52.240;20.902;2024-01-30T06:24:51;40.70;;;20.30;;
84660;SDS011;74889;52.240;20.902;2024-01-30T06:27:17;38.00;;;20.20;;
84660;SDS011;74889;52.240;20.902;2024-01-30T06:29:44;42.90;;;21.30;;
84660;SDS011;74889;52.240;20.902;2024-01-30T06:32:09;42.50;;;21.60;;
84660;SDS011;74889;52.240;20.902;2024-01-30T06:34:35;44.80;;;22.30;;
84660;SDS011;74889;52.240;20.902;2024-01-30T06:37:01;43.30;;;21.00;;
84660;SDS011;74889;52.240;20.902;2024-01-30T06:39:27;40.00;;;20.80;;
84660;SDS011;74889;52.240;20.902;2024-01-30T06:41:52;41.00;;;20.60;;
84660;SDS011;74889;52.240;20.902;2024-01-30T06:44:18;41.70;;;20.80;;
84660;SDS011;74889;52.240;20.902;2024-01-30T06:46:43;42.50;;;21.50;;
84660;SDS011;74889;52.240;20.902;2024-01-30T06:49:09;43.90;;;20.50;;
84660;SDS011;74889;52.240;20.902;2024-01-30T06:51:35;45.80;;;21.60;;
84660;SDS011;74889;52.240;20.902;2024-01-30T06:54:02;43.60;;;20.30;;
84660;SDS011;74889;52.240;20.902;2024-01-30T06:56:28;40.70;;;20.70;;
84660;SDS011;74889;52.240;20.902;2024-01-30T06:58:54;40.30;;;20.10;;
84660;SDS011;74889;52.240;20.902;2024-01-30T07:01:20;45.10;;;22.00;;
84660;SDS011;74889;52.240;20.902;2024-01-30T07:03:46;44.40;;;21.60;;
84660;SDS011;74889;52.240;20.902;2024-01-30T07:06:12;45.20;;;21.00;;
84660;SDS011;74889;52.240;20.902;2024-01-30T07:08:37;40.00;;;20.50;;
84660;SDS011;74889;52.240;20.902;2024-01-30T07:11:05;42.70;;;21.60;;
84660;SDS011;74889;52.240;20.902;2024-01-30T07:13:32;39.90;;;20.40;;
84660;SDS011;74889;52.240;20.902;2024-01-30T07:15:57;38.60;;;18.90;;
84660;SDS011;74889;52.240;20.902;2024-01-30T07:18:24;37.80;;;18.80;;
84660;SDS011;74889;52.240;20.902;2024-01-30T07:20:50;38.00;;;20.80;;
84660;SDS011;74889;52.240;20.902;2024-01-30T07:23:17;41.20;;;19.20;;
84660;SDS011;74889;52.240;20.902;2024-01-30T07:25:43;43.80;;;21.10;;
84660;SDS011;74889;52.240;20.902;2024-01-30T07:28:11;37.20;;;18.60;;
84660;SDS011;74889;52.240;20.902;2024-01-30T07:30:38;37.70;;;19.60;;
84660;SDS011;74889;52.240;20.902;2024-01-30T07:33:04;42.60;;;18.80;;
84660;SDS011;74889;52.240;20.902;2024-01-30T07:35:29;39.80;;;19.80;;
84660;SDS011;74889;52.240;20.902;2024-01-30T07:37:55;37.80;;;20.10;;
84660;SDS011;74889;52.240;20.902;2024-01-30T07:40:23;49.80;;;20.60;;
84660;SDS011;74889;52.240;20.902;2024-01-30T07:42:49;41.50;;;19.90;;
84660;SDS011;74889;52.240;20.902;2024-01-30T07:45:14;43.70;;;20.60;;
84660;SDS011;74889;52.240;20.902;2024-01-30T07:47:40;37.00;;;18.30;;
84660;SDS011;74889;52.240;20.902;2024-01-30T07:50:08;34.70;;;18.50;;
84660;SDS011;74889;52.240;20.902;2024-01-30T07:52:35;44.50;;;20.50;;
84660;SDS011;74889;52.240;20.902;2024-01-30T07:55:02;33.00;;;17.90;;
84660;SDS011;74889;52.240;20.902;2024-01-30T07:57:29;38.10;;;18.80;;
84660;SDS011;74889;52.240;20.902;2024-01-30T07:59:56;37.00;;;17.50;;
84660;SDS011;74889;52.240;20.902;2024-01-30T08:02:22;38.60;;;19.20;;
84660;SDS011;74889;52.240;20.902;2024-01-30T08:04:48;37.90;;;18.50;;
84660;SDS011;74889;52.240;20.902;2024-01-30T08:07:15;35.30;;;17.20;;
84660;SDS011;74889;52.240;20.902;2024-01-30T08:09:43;37.20;;;18.10;;
84660;SDS011;74889;52.240;20.902;2024-01-30T08:12:09;39.10;;;17.10;;
84660;SDS011;74889;52.240;20.902;2024-01-30T08:14:36;36.60;;;17.80;;
84660;SDS011;74889;52.240;20.902;2024-01-30T08:17:02;37.10;;;17.30;;
84660;SDS011;74889;52.240;20.902;2024-01-30T08:19:28;35.10;;;17.90;;
84660;SDS011;74889;52.240;20.902;2024-01-30T08:21:54;33.20;;;16.80;;
84660;SDS011;74889;52.240;20.902;2024-01-30T08:24:20;35.60;;;16.90;;
84660;SDS011;74889;52.240;20.902;2024-01-30T08:26:46;33.70;;;16.80;;
84660;SDS011;74889;52.240;20.902;2024-01-30T08:29:12;36.90;;;17.30;;
84660;SDS011;74889;52.240;20.902;2024-01-30T08:31:38;37.10;;;17.10;;
84660;SDS011;74889;52.240;20.902;2024-01-30T08:34:03;34.70;;;16.60;;
84660;SDS011;74889;52.240;20.902;2024-01-30T08:36:29;34.80;;;16.30;;
84660;SDS011;74889;52.240;20.902;2024-01-30T08:38:54;34.60;;;17.00;;
84660;SDS011;74889;52.240;20.902;2024-01-30T08:41:20;35.50;;;16.50;;
84660;SDS011;74889;52.240;20.902;2024-01-30T08:43:45;34.50;;;16.40;;
84660;SDS011;74889;52.240;20.902;2024-01-30T08:46:11;35.80;;;15.60;;
84660;SDS011;74889;52.240;20.902;2024-01-30T08:48:38;28.80;;;14.60;;
84660;SDS011;74889;52.240;20.902;2024-01-30T08:51:03;35.20;;;15.30;;
84660;SDS011;74889;52.240;20.902;2024-01-30T08:53:35;33.30;;;15.30;;
84660;SDS011;74889;52.240;20.902;2024-01-30T08:56:01;36.90;;;15.40;;
84660;SDS011;74889;52.240;20.902;2024-01-30T08:58:30;32.50;;;14.60;;
84660;SDS011;74889;52.240;20.902;2024-01-30T09:00:55;30.70;;;14.50;;
84660;SDS011;74889;52.240;20.902;2024-01-30T09:03:21;31.00;;;14.20;;
84660;SDS011;74889;52.240;20.902;2024-01-30T09:05:46;30.50;;;13.80;;
84660;SDS011;74889;52.240;20.902;2024-01-30T09:08:12;32.50;;;13.30;;
84660;SDS011;74889;52.240;20.902;2024-01-30T09:10:38;29.80;;;13.30;;
84660;SDS011;74889;52.240;20.902;2024-01-30T09:13:03;29.20;;;14.70;;
84660;SDS011;74889;52.240;20.902;2024-01-30T09:15:30;37.00;;;14.80;;
84660;SDS011;74889;52.240;20.902;2024-01-30T09:17:56;30.40;;;13.90;;
84660;SDS011;74889;52.240;20.902;2024-01-30T09:20:23;33.30;;;13.70;;
84660;SDS011;74889;52.240;20.902;2024-01-30T09:22:49;33.70;;;13.00;;
84660;SDS011;74889;52.240;20.902;2024-01-30T09:25:15;27.30;;;13.30;;
84660;SDS011;74889;52.240;20.902;2024-01-30T09:27:40;28.60;;;13.30;;
84660;SDS011;74889;52.240;20.902;2024-01-30T09:30:06;33.60;;;13.80;;
84660;SDS011;74889;52.240;20.902;2024-01-30T09:32:32;26.80;;;12.20;;
84660;SDS011;74889;52.240;20.902;2024-01-30T09:34:58;28.70;;;13.30;;
84660;SDS011;74889;52.240;20.902;2024-01-30T09:37:23;24.00;;;11.50;;
84660;SDS011;74889;52.240;20.902;2024-01-30T09:39:49;24.70;;;12.50;;
84660;SDS011;74889;52.240;20.902;2024-01-30T09:42:18;25.80;;;12.30;;
84660;SDS011;74889;52.240;20.902;2024-01-30T09:44:57;24.90;;;11.30;;
84660;SDS011;74889;52.240;20.902;2024-01-30T09:47:23;23.20;;;11.40;;
84660;SDS011;74889;52.240;20.902;2024-01-30T09:49:50;22.50;;;11.60;;
84660;SDS011;74889;52.240;20.902;2024-01-30T09:52:17;24.00;;;11.30;;
84660;SDS011;74889;52.240;20.902;2024-01-30T09:54:44;21.30;;;11.10;;
84660;SDS011;74889;52.240;20.902;2024-01-30T09:57:11;28.80;;;11.30;;
84660;SDS011;74889;52.240;20.902;2024-01-30T09:59:37;29.40;;;11.80;;
84660;SDS011;74889;52.240;20.902;2024-01-30T10:02:03;24.50;;;10.80;;
84660;SDS011;74889;52.240;20.902;2024-01-30T10:04:30;25.50;;;10.40;;
84660;SDS011;74889;52.240;20.902;2024-01-30T10:06:55;22.50;;;11.70;;
84660;SDS011;74889;52.240;20.902;2024-01-30T10:09:24;27.30;;;11.20;;
84660;SDS011;74889;52.240;20.902;2024-01-30T10:11:51;21.10;;;10.60;;
84660;SDS011;74889;52.240;20.902;2024-01-30T10:14:17;29.50;;;11.10;;
84660;SDS011;74889;52.240;20.902;2024-01-30T10:16:45;25.50;;;10.90;;
84660;SDS011;74889;52.240;20.902;2024-01-30T10:19:11;27.70;;;10.60;;
84660;SDS011;74889;52.240;20.902;2024-01-30T10:21:37;23.80;;;11.10;;
84660;SDS011;74889;52.240;20.902;2024-01-30T10:24:03;27.90;;;11.10;;
84660;SDS011;74889;52.240;20.902;2024-01-30T10:26:28;25.30;;;10.90;;
84660;SDS011;74889;52.240;20.902;2024-01-30T10:28:54;35.60;;;10.70;;
84660;SDS011;74889;52.240;20.902;2024-01-30T10:31:20;28.10;;;11.00;;
84660;SDS011;74889;52.240;20.902;2024-01-30T10:33:47;21.90;;;10.40;;
84660;SDS011;74889;52.240;20.902;2024-01-30T10:36:13;27.20;;;10.40;;
84660;SDS011;74889;52.240;20.902;2024-01-30T10:38:43;26.50;;;10.70;;
84660;SDS011;74889;52.240;20.902;2024-01-30T10:41:12;25.40;;;11.20;;
84660;SDS011;74889;52.240;20.902;2024-01-30T10:43:41;18.70;;;9.80;;
84660;SDS011;74889;52.240;20.902;2024-01-30T10:48:46;20.10;;;9.80;;
84660;SDS011;74889;52.240;20.902;2024-01-30T10:51:27;22.70;;;10.40;;
84660;SDS011;74889;52.240;20.902;2024-01-30T10:53:53;21.90;;;9.90;;
84660;SDS011;74889;52.240;20.902;2024-01-30T10:56:21;25.50;;;11.40;;
84660;SDS011;74889;52.240;20.902;2024-01-30T10:58:51;22.20;;;10.50;;
84660;SDS011;74889;52.240;20.902;2024-01-30T11:01:19;31.00;;;10.70;;
84660;SDS011;74889;52.240;20.902;2024-01-30T11:03:51;24.00;;;10.10;;
84660;SDS011;74889;52.240;20.902;2024-01-30T11:06:17;21.30;;;10.80;;
84660;SDS011;74889;52.240;20.902;2024-01-30T11:08:44;21.60;;;11.10;;
84660;SDS011;74889;52.240;20.902;2024-01-30T11:11:10;26.30;;;9.90;;
84660;SDS011;74889;52.240;20.902;2024-01-30T11:13:36;22.60;;;11.10;;
84660;SDS011;74889;52.240;20.902;2024-01-30T11:16:03;23.30;;;11.40;;
84660;SDS011;74889;52.240;20.902;2024-01-30T11:18:30;20.00;;;10.10;;
84660;SDS011;74889;52.240;20.902;2024-01-30T11:20:57;22.70;;;10.60;;
84660;SDS011;74889;52.240;20.902;2024-01-30T11:23:23;26.70;;;11.90;;
84660;SDS011;74889;52.240;20.902;2024-01-30T11:25:52;25.90;;;11.50;;
84660;SDS011;74889;52.240;20.902;2024-01-30T11:28:18;27.80;;;12.20;;
84660;SDS011;74889;52.240;20.902;2024-01-30T11:30:44;22.60;;;11.60;;
84660;SDS011;74889;52.240;20.902;2024-01-30T11:33:10;16.90;;;10.60;;
84660;SDS011;74889;52.240;20.902;2024-01-30T11:38:13;19.60;;;11.10;;
84660;SDS011;74889;52.240;20.902;2024-01-30T11:40:40;23.70;;;9.90;;
84660;SDS011;74889;52.240;20.902;2024-01-30T11:43:07;20.10;;;10.50;;
84660;SDS011;74889;52.240;20.902;2024-01-30T11:45:34;21.90;;;10.30;;
84660;SDS011;74889;52.240;20.902;2024-01-30T11:48:02;19.60;;;9.40;;
84660;SDS011;74889;52.240;20.902;2024-01-30T11:50:29;21.30;;;9.80;;
84660;SDS011;74889;52.240;20.902;2024-01-30T11:52:57;20.90;;;10.20;;
84660;SDS011;74889;52.240;20.902;2024-01-30T11:55:24;22.70;;;11.60;;
84660;SDS011;74889;52.240;20.902;2024-01-30T11:57:49;21.70;;;11.20;;
84660;SDS011;74889;52.240;20.902;2024-01-30T12:00:16;23.80;;;10.30;;
84660;SDS011;74889;52.240;20.902;2024-01-30T12:02:44;25.50;;;10.50;;
84660;SDS011;74889;52.240;20.902;2024-01-30T12:05:14;23.10;;;9.90;;
84660;SDS011;74889;52.240;20.902;2024-01-30T12:07:39;27.40;;;10.80;;
84660;SDS011;74889;52.240;20.902;2024-01-30T12:10:05;21.00;;;10.40;;
84660;SDS011;74889;52.240;20.902;2024-01-30T12:12:30;22.60;;;10.80;;
84660;SDS011;74889;52.240;20.902;2024-01-30T12:14:57;22.60;;;9.70;;
84660;SDS011;74889;52.240;20.902;2024-01-30T12:17:34;21.00;;;9.60;;
84660;SDS011;74889;52.240;20.902;2024-01-30T12:22:37;23.10;;;11.70;;
84660;SDS011;74889;52.240;20.902;2024-01-30T12:27:42;22.30;;;10.60;;
84660;SDS011;74889;52.240;20.902;2024-01-30T12:30:12;21.20;;;10.30;;
84660;SDS011;74889;52.240;20.902;2024-01-30T12:32:40;20.10;;;10.30;;
84660;SDS011;74889;52.240;20.902;2024-01-30T12:35:10;23.70;;;11.10;;
84660;SDS011;74889;52.240;20.902;2024-01-30T12:37:38;20.90;;;10.40;;
84660;SDS011;74889;52.240;20.902;2024-01-30T12:40:05;25.10;;;10.20;;
84660;SDS011;74889;52.240;20.902;2024-01-30T12:42:33;23.10;;;10.30;;
84660;SDS011;74889;52.240;20.902;2024-01-30T12:44:58;23.90;;;10.40;;
84660;SDS011;74889;52.240;20.902;2024-01-30T12:47:25;22.50;;;10.30;;
84660;SDS011;74889;52.240;20.902;2024-01-30T12:49:51;20.90;;;9.50;;
84660;SDS011;74889;52.240;20.902;2024-01-30T12:52:19;20.20;;;10.80;;
84660;SDS011;74889;52.240;20.902;2024-01-30T12:54:46;22.50;;;10.50;;
84660;SDS011;74889;52.240;20.902;2024-01-30T12:57:12;20.80;;;10.60;;
84660;SDS011;74889;52.240;20.902;2024-01-30T12:59:38;21.40;;;10.10;;
84660;SDS011;74889;52.240;20.902;2024-01-30T13:02:04;22.50;;;10.20;;
84660;SDS011;74889;52.240;20.902;2024-01-30T13:04:31;20.30;;;10.10;;
84660;SDS011;74889;52.240;20.902;2024-01-30T13:06:56;21.00;;;10.30;;
84660;SDS011;74889;52.240;20.902;2024-01-30T13:09:22;23.40;;;10.90;;
84660;SDS011;74889;52.240;20.902;2024-01-30T13:11:49;27.80;;;11.70;;
84660;SDS011;74889;52.240;20.902;2024-01-30T13:14:17;20.20;;;10.00;;
84660;SDS011;74889;52.240;20.902;2024-01-30T13:16:44;20.10;;;10.10;;
84660;SDS011;74889;52.240;20.902;2024-01-30T13:19:10;21.40;;;10.30;;
84660;SDS011;74889;52.240;20.902;2024-01-30T13:21:36;22.60;;;10.80;;
84660;SDS011;74889;52.240;20.902;2024-01-30T13:24:01;20.60;;;10.20;;
84660;SDS011;74889;52.240;20.902;2024-01-30T13:26:27;19.00;;;11.00;;
84660;SDS011;74889;52.240;20.902;2024-01-30T13:28:54;22.80;;;10.70;;
84660;SDS011;74889;52.240;20.902;2024-01-30T13:31:20;29.50;;;11.30;;
84660;SDS011;74889;52.240;20.902;2024-01-30T13:33:47;19.60;;;11.10;;
84660;SDS011;74889;52.240;20.902;2024-01-30T13:36:14;22.60;;;10.90;;
84660;SDS011;74889;52.240;20.902;2024-01-30T13:38:40;19.80;;;10.90;;
84660;SDS011;74889;52.240;20.902;2024-01-30T13:41:07;21.60;;;10.50;;
84660;SDS011;74889;52.240;20.902;2024-01-30T13:43:33;23.60;;;11.90;;
84660;SDS011;74889;52.240;20.902;2024-01-30T13:46:00;21.60;;;11.30;;
84660;SDS011;74889;52.240;20.902;2024-01-30T13:48:25;25.30;;;11.90;;
84660;SDS011;74889;52.240;20.902;2024-01-30T13:50:51;21.70;;;12.20;;
84660;SDS011;74889;52.240;20.902;2024-01-30T13:53:19;22.20;;;11.50;;
84660;SDS011;74889;52.240;20.902;2024-01-30T13:55:46;26.70;;;10.90;;
84660;SDS011;74889;52.240;20.902;2024-01-30T13:58:13;25.40;;;12.40;;
84660;SDS011;74889;52.240;20.902;2024-01-30T14:00:39;23.90;;;11.90;;
84660;SDS011;74889;52.240;20.902;2024-01-30T14:03:06;21.40;;;11.40;;
84660;SDS011;74889;52.240;20.902;2024-01-30T14:05:32;21.60;;;12.10;;
84660;SDS011;74889;52.240;20.902;2024-01-30T14:07:57;22.70;;;12.00;;
84660;SDS011;74889;52.240;20.902;2024-01-30T14:10:25;22.30;;;11.30;;
84660;SDS011;74889;52.240;20.902;2024-01-30T14:12:51;24.40;;;12.10;;
84660;SDS011;74889;52.240;20.902;2024-01-30T14:15:17;24.20;;;12.30;;